sensor_id;sensor_type;location;lat;lon;timestamp;pressure;altitude;pressure_sealevel;temperature;humidity
10606;BME280;5350;42.698;23.148;2023-05-10T00:00:58;93881.25;;;9.49;100.00
10606;BME280;5350;42.698;23.148;2023-05-10T00:03:26;93880.22;;;9.45;100.00
10606;BME280;5350;42.698;23.148;2023-05-10T00:05:53;93874.97;;;9.45;100.00
10606;BME280;5350;42.698;23.148;2023-05-10T00:08:19;93876.03;;;9.44;100.00
10606;BME280;5350;42.698;23.148;2023-05-10T00:10:46;93874.38;;;9.53;100.00
10606;BME280;5350;42.698;23.148;2023-05-10T00:13:13;93868.94;;;9.44;100.00
10606;BME280;5350;42.698;23.148;2023-05-10T00:15:40;93872.88;;;9.42;100.00
10606;BME280;5350;42.698;23.148;2023-05-10T00:18:06;93869.97;;;9.43;100.00
10606;BME280;5350;42.698;23.148;2023-05-10T00:20:35;93864.94;;;9.52;100.00
10606;BME280;5350;42.698;23.148;2023-05-10T00:23:01;93866.41;;;9.34;100.00
10606;BME280;5350;42.698;23.148;2023-05-10T00:25:28;93853.06;;;9.26;100.00
10606;BME280;5350;42.698;23.148;2023-05-10T00:27:55;93860.16;;;9.25;100.00
10606;BME280;5350;42.698;23.148;2023-05-10T00:30:22;93855.91;;;9.34;100.00
10606;BME280;5350;42.698;23.148;2023-05-10T00:32:49;93857.81;;;9.24;100.00
10606;BME280;5350;42.698;23.148;2023-05-10T00:35:17;93859.94;;;9.22;100.00
10606;BME280;5350;42.698;23.148;2023-05-10T00:37:45;93848.66;;;9.21;100.00
10606;BME280;5350;42.698;23.148;2023-05-10T00:40:12;93849.38;;;9.27;100.00
10606;BME280;5350;42.698;23.148;2023-05-10T00:42:38;93851.59;;;9.15;100.00
10606;BME280;5350;42.698;23.148;2023-05-10T00:45:06;93847.72;;;9.07;100.00
10606;BME280;5350;42.698;23.148;2023-05-10T00:47:34;93846.34;;;9.15;100.00
10606;BME280;5350;42.698;23.148;2023-05-10T00:50:01;93851.56;;;9.20;100.00
10606;BME280;5350;42.698;23.148;2023-05-10T00:52:28;93850.56;;;9.11;100.00
10606;BME280;5350;42.698;23.148;2023-05-10T00:54:57;93850.59;;;9.06;100.00
10606;BME280;5350;42.698;23.148;2023-05-10T00:57:24;93841.69;;;9.02;100.00
10606;BME280;5350;42.698;23.148;2023-05-10T00:59:51;93850.84;;;9.09;100.00
10606;BME280;5350;42.698;23.148;2023-05-10T01:02:18;93849.91;;;8.90;100.00
10606;BME280;5350;42.698;23.148;2023-05-10T01:04:44;93843.81;;;9.00;100.00
10606;BME280;5350;42.698;23.148;2023-05-10T01:07:11;93848.34;;;8.89;100.00
10606;BME280;5350;42.698;23.148;2023-05-10T01:09:38;93844.91;;;8.94;100.00
10606;BME280;5350;42.698;23.148;2023-05-10T01:12:06;93839.66;;;8.94;100.00
10606;BME280;5350;42.698;23.148;2023-05-10T01:14:34;93837.59;;;8.91;100.00
10606;BME280;5350;42.698;23.148;2023-05-10T01:17:01;93838.63;;;8.95;100.00
10606;BME280;5350;42.698;23.148;2023-05-10T01:19:30;93838.09;;;8.93;100.00
10606;BME280;5350;42.698;23.148;2023-05-10T01:22:05;93834.72;;;8.87;100.00
10606;BME280;5350;42.698;23.148;2023-05-10T01:25:13;93827.84;;;8.96;100.00
10606;BME280;5350;42.698;23.148;2023-05-10T01:28:02;93832.88;;;8.88;100.00
10606;BME280;5350;42.698;23.148;2023-05-10T01:31:07;93825.53;;;8.84;100.00
10606;BME280;5350;42.698;23.148;2023-05-10T01:33:39;93824.22;;;8.87;100.00
10606;BME280;5350;42.698;23.148;2023-05-10T01:36:27;93822.59;;;8.96;100.00
10606;BME280;5350;42.698;23.148;2023-05-10T01:38:59;93825.22;;;8.96;100.00
10606;BME280;5350;42.698;23.148;2023-05-10T01:41:36;93819.53;;;8.84;100.00
10606;BME280;5350;42.698;23.148;2023-05-10T01:44:11;93815.56;;;8.86;100.00
10606;BME280;5350;42.698;23.148;2023-05-10T01:46:43;93816.56;;;8.96;100.00
10606;BME280;5350;42.698;23.148;2023-05-10T01:49:20;93815.53;;;8.92;100.00
10606;BME280;5350;42.698;23.148;2023-05-10T01:51:52;93814.66;;;9.01;100.00
10606;BME280;5350;42.698;23.148;2023-05-10T01:54:21;93802.94;;;8.94;100.00
10606;BME280;5350;42.698;23.148;2023-05-10T01:56:55;93817.03;;;9.03;100.00
10606;BME280;5350;42.698;23.148;2023-05-10T01:59:23;93818.72;;;8.89;100.00
10606;BME280;5350;42.698;23.148;2023-05-10T02:01:56;93822.09;;;8.89;100.00
10606;BME280;5350;42.698;23.148;2023-05-10T02:04:26;93816.56;;;8.96;100.00
10606;BME280;5350;42.698;23.148;2023-05-10T02:06:55;93811.09;;;8.92;100.00
10606;BME280;5350;42.698;23.148;2023-05-10T02:09:23;93817.44;;;8.86;100.00
10606;BME280;5350;42.698;23.148;2023-05-10T02:11:51;93807.16;;;8.90;100.00
10606;BME280;5350;42.698;23.148;2023-05-10T02:14:19;93818.13;;;8.97;100.00
10606;BME280;5350;42.698;23.148;2023-05-10T02:16:48;93809.69;;;9.05;100.00
10606;BME280;5350;42.698;23.148;2023-05-10T02:19:18;93813.13;;;8.95;100.00
10606;BME280;5350;42.698;23.148;2023-05-10T02:21:49;93810.59;;;8.85;100.00
10606;BME280;5350;42.698;23.148;2023-05-10T02:24:17;93807.00;;;8.76;100.00
10606;BME280;5350;42.698;23.148;2023-05-10T02:26:47;93807.81;;;8.71;100.00
10606;BME280;5350;42.698;23.148;2023-05-10T02:29:16;93812.44;;;8.84;100.00
10606;BME280;5350;42.698;23.148;2023-05-10T02:31:44;93806.16;;;8.80;100.00
10606;BME280;5350;42.698;23.148;2023-05-10T02:34:12;93801.47;;;8.77;100.00
10606;BME280;5350;42.698;23.148;2023-05-10T02:36:40;93799.16;;;8.71;100.00
10606;BME280;5350;42.698;23.148;2023-05-10T02:39:09;93801.75;;;8.76;100.00
10606;BME280;5350;42.698;23.148;2023-05-10T02:41:39;93797.28;;;8.76;100.00
10606;BME280;5350;42.698;23.148;2023-05-10T02:44:07;93805.19;;;8.71;100.00
10606;BME280;5350;42.698;23.148;2023-05-10T02:46:35;93770.25;;;8.42;100.00
10606;BME280;5350;42.698;23.148;2023-05-10T02:49:03;93804.13;;;8.72;100.00
10606;BME280;5350;42.698;23.148;2023-05-10T02:51:31;93819.69;;;8.59;100.00
10606;BME280;5350;42.698;23.148;2023-05-10T02:54:01;93811.38;;;8.47;100.00
10606;BME280;5350;42.698;23.148;2023-05-10T02:56:33;93812.25;;;8.32;100.00
10606;BME280;5350;42.698;23.148;2023-05-10T02:59:00;93814.59;;;8.29;100.00
10606;BME280;5350;42.698;23.148;2023-05-10T03:01:27;93808.84;;;8.27;100.00
10606;BME280;5350;42.698;23.148;2023-05-10T03:03:54;93802.28;;;8.34;100.00
10606;BME280;5350;42.698;23.148;2023-05-10T03:06:21;93808.03;;;8.36;100.00
10606;BME280;5350;42.698;23.148;2023-05-10T03:08:47;93806.94;;;8.42;100.00
10606;BME280;5350;42.698;23.148;2023-05-10T03:11:28;93811.41;;;8.42;100.00
10606;BME280;5350;42.698;23.148;2023-05-10T03:14:09;93814.81;;;8.42;100.00
10606;BME280;5350;42.698;23.148;2023-05-10T03:16:42;93810.31;;;8.48;100.00
10606;BME280;5350;42.698;23.148;2023-05-10T03:19:16;93822.16;;;8.40;100.00
10606;BME280;5350;42.698;23.148;2023-05-10T03:21:48;93817.44;;;8.42;100.00
10606;BME280;5350;42.698;23.148;2023-05-10T03:24:16;93818.03;;;8.19;100.00
10606;BME280;5350;42.698;23.148;2023-05-10T03:26:45;93824.59;;;8.12;100.00
10606;BME280;5350;42.698;23.148;2023-05-10T03:29:14;93824.31;;;8.18;100.00
10606;BME280;5350;42.698;23.148;2023-05-10T03:31:41;93823.81;;;8.16;100.00
10606;BME280;5350;42.698;23.148;2023-05-10T03:34:08;93823.81;;;8.16;100.00
10606;BME280;5350;42.698;23.148;2023-05-10T03:36:35;93821.00;;;7.97;100.00
10606;BME280;5350;42.698;23.148;2023-05-10T03:39:01;93828.84;;;7.97;100.00
10606;BME280;5350;42.698;23.148;2023-05-10T03:41:29;93824.41;;;8.03;100.00
10606;BME280;5350;42.698;23.148;2023-05-10T03:43:55;93821.78;;;7.93;100.00
10606;BME280;5350;42.698;23.148;2023-05-10T03:46:23;93829.41;;;7.94;100.00
10606;BME280;5350;42.698;23.148;2023-05-10T03:48:50;93831.22;;;7.94;100.00
10606;BME280;5350;42.698;23.148;2023-05-10T03:51:17;93841.16;;;7.97;100.00
10606;BME280;5350;42.698;23.148;2023-05-10T03:53:43;93839.31;;;8.02;100.00
10606;BME280;5350;42.698;23.148;2023-05-10T03:56:10;93843.25;;;8.05;100.00
10606;BME280;5350;42.698;23.148;2023-05-10T03:58:37;93851.63;;;8.07;100.00
10606;BME280;5350;42.698;23.148;2023-05-10T04:01:04;93849.53;;;8.09;100.00
10606;BME280;5350;42.698;23.148;2023-05-10T04:03:32;93847.97;;;8.03;100.00
10606;BME280;5350;42.698;23.148;2023-05-10T04:06:00;93850.88;;;7.96;100.00
10606;BME280;5350;42.698;23.148;2023-05-10T04:08:27;93856.34;;;8.00;100.00
10606;BME280;5350;42.698;23.148;2023-05-10T04:10:54;93857.16;;;8.00;100.00
10606;BME280;5350;42.698;23.148;2023-05-10T04:13:21;93856.88;;;8.07;100.00
10606;BME280;5350;42.698;23.148;2023-05-10T04:15:47;93853.22;;;8.03;100.00
10606;BME280;5350;42.698;23.148;2023-05-10T04:18:14;93851.63;;;8.02;100.00
10606;BME280;5350;42.698;23.148;2023-05-10T04:20:43;93854.28;;;7.92;100.00
10606;BME280;5350;42.698;23.148;2023-05-10T04:23:10;93827.66;;;7.55;100.00
10606;BME280;5350;42.698;23.148;2023-05-10T04:25:37;93866.06;;;7.89;100.00
10606;BME280;5350;42.698;23.148;2023-05-10T04:28:03;93855.88;;;7.88;100.00
10606;BME280;5350;42.698;23.148;2023-05-10T04:30:30;93861.63;;;7.90;100.00
10606;BME280;5350;42.698;23.148;2023-05-10T04:32:57;93872.09;;;7.90;100.00
10606;BME280;5350;42.698;23.148;2023-05-10T04:35:24;93865.31;;;7.84;100.00
10606;BME280;5350;42.698;23.148;2023-05-10T04:37:52;93862.16;;;7.92;100.00
10606;BME280;5350;42.698;23.148;2023-05-10T04:40:18;93863.69;;;7.93;100.00
10606;BME280;5350;42.698;23.148;2023-05-10T04:42:45;93868.97;;;7.88;100.00
10606;BME280;5350;42.698;23.148;2023-05-10T04:45:12;93861.34;;;7.91;100.00
10606;BME280;5350;42.698;23.148;2023-05-10T04:47:40;93830.75;;;7.77;100.00
10606;BME280;5350;42.698;23.148;2023-05-10T04:50:07;93865.56;;;7.92;100.00
10606;BME280;5350;42.698;23.148;2023-05-10T04:52:34;93864.72;;;7.97;100.00
10606;BME280;5350;42.698;23.148;2023-05-10T04:55:03;93872.06;;;8.05;100.00
10606;BME280;5350;42.698;23.148;2023-05-10T04:57:30;93861.56;;;8.10;100.00
10606;BME280;5350;42.698;23.148;2023-05-10T04:59:57;93871.50;;;8.08;100.00
10606;BME280;5350;42.698;23.148;2023-05-10T05:02:23;93879.63;;;8.17;100.00
10606;BME280;5350;42.698;23.148;2023-05-10T05:04:50;93877.75;;;8.22;100.00
10606;BME280;5350;42.698;23.148;2023-05-10T05:07:17;93873.59;;;8.16;100.00
10606;BME280;5350;42.698;23.148;2023-05-10T05:09:43;93872.56;;;8.12;100.00
10606;BME280;5350;42.698;23.148;2023-05-10T05:12:12;93870.47;;;8.09;100.00
10606;BME280;5350;42.698;23.148;2023-05-10T05:14:39;93877.81;;;8.07;100.00
10606;BME280;5350;42.698;23.148;2023-05-10T05:17:06;93877.50;;;8.24;100.00
10606;BME280;5350;42.698;23.148;2023-05-10T05:19:33;93879.31;;;8.33;100.00
10606;BME280;5350;42.698;23.148;2023-05-10T05:21:59;93883.53;;;8.19;100.00
10606;BME280;5350;42.698;23.148;2023-05-10T05:24:26;93889.28;;;8.26;100.00
10606;BME280;5350;42.698;23.148;2023-05-10T05:26:53;93886.44;;;8.28;100.00
10606;BME280;5350;42.698;23.148;2023-05-10T05:29:21;93886.66;;;8.36;100.00
10606;BME280;5350;42.698;23.148;2023-05-10T05:31:48;93888.69;;;8.49;100.00
10606;BME280;5350;42.698;23.148;2023-05-10T05:34:14;93888.22;;;8.37;100.00
10606;BME280;5350;42.698;23.148;2023-05-10T05:36:41;93893.22;;;8.24;100.00
10606;BME280;5350;42.698;23.148;2023-05-10T05:39:08;93888.22;;;8.22;100.00
10606;BME280;5350;42.698;23.148;2023-05-10T05:41:34;93889.31;;;8.16;100.00
10606;BME280;5350;42.698;23.148;2023-05-10T05:44:01;93887.72;;;8.20;100.00
10606;BME280;5350;42.698;23.148;2023-05-10T05:46:29;93885.66;;;8.12;100.00
10606;BME280;5350;42.698;23.148;2023-05-10T05:48:56;93890.91;;;8.12;100.00
10606;BME280;5350;42.698;23.148;2023-05-10T05:51:23;93892.72;;;8.22;100.00
10606;BME280;5350;42.698;23.148;2023-05-10T05:53:49;93887.19;;;8.28;100.00
10606;BME280;5350;42.698;23.148;2023-05-10T05:56:16;93903.19;;;8.27;100.00
10606;BME280;5350;42.698;23.148;2023-05-10T05:58:49;93877.81;;;8.07;100.00
10606;BME280;5350;42.698;23.148;2023-05-10T06:01:16;93872.63;;;7.92;100.00
10606;BME280;5350;42.698;23.148;2023-05-10T06:03:44;93911.31;;;8.25;100.00
10606;BME280;5350;42.698;23.148;2023-05-10T06:06:11;93896.88;;;8.23;100.00
10606;BME280;5350;42.698;23.148;2023-05-10T06:08:37;93910.53;;;8.30;100.00
10606;BME280;5350;42.698;23.148;2023-05-10T06:11:04;93900.28;;;8.38;100.00
10606;BME280;5350;42.698;23.148;2023-05-10T06:13:31;93903.66;;;8.44;100.00
10606;BME280;5350;42.698;23.148;2023-05-10T06:16:00;93901.84;;;8.39;100.00
10606;BME280;5350;42.698;23.148;2023-05-10T06:18:27;93898.94;;;8.46;100.00
10606;BME280;5350;42.698;23.148;2023-05-10T06:20:55;93902.34;;;8.46;100.00
10606;BME280;5350;42.698;23.148;2023-05-10T06:23:22;93910.69;;;8.58;100.00
10606;BME280;5350;42.698;23.148;2023-05-10T06:25:53;93897.09;;;8.41;100.00
10606;BME280;5350;42.698;23.148;2023-05-10T06:28:20;93907.88;;;8.40;100.00
10606;BME280;5350;42.698;23.148;2023-05-10T06:30:47;93905.00;;;8.36;100.00
10606;BME280;5350;42.698;23.148;2023-05-10T06:33:13;93906.84;;;8.36;100.00
10606;BME280;5350;42.698;23.148;2023-05-10T06:35:41;93890.09;;;8.17;100.00
10606;BME280;5350;42.698;23.148;2023-05-10T06:38:09;93912.31;;;8.39;100.00
10606;BME280;5350;42.698;23.148;2023-05-10T06:40:36;93916.53;;;8.40;100.00
10606;BME280;5350;42.698;23.148;2023-05-10T06:43:03;93913.94;;;8.30;100.00
10606;BME280;5350;42.698;23.148;2023-05-10T06:45:29;93916.00;;;8.33;100.00
10606;BME280;5350;42.698;23.148;2023-05-10T06:47:56;93916.53;;;8.35;100.00
10606;BME280;5350;42.698;23.148;2023-05-10T06:50:23;93917.31;;;8.36;100.00
10606;BME280;5350;42.698;23.148;2023-05-10T06:52:50;93924.09;;;8.47;100.00
10606;BME280;5350;42.698;23.148;2023-05-10T06:55:18;93874.66;;;8.15;100.00
10606;BME280;5350;42.698;23.148;2023-05-10T06:57:45;93912.81;;;8.46;100.00
10606;BME280;5350;42.698;23.148;2023-05-10T07:00:13;93928.00;;;8.54;100.00
10606;BME280;5350;42.698;23.148;2023-05-10T07:02:40;93926.41;;;8.53;100.00
10606;BME280;5350;42.698;23.148;2023-05-10T07:05:08;93926.94;;;8.55;100.00
10606;BME280;5350;42.698;23.148;2023-05-10T07:07:35;93925.66;;;8.48;100.00
10606;BME280;5350;42.698;23.148;2023-05-10T07:10:02;93921.72;;;8.50;100.00
10606;BME280;5350;42.698;23.148;2023-05-10T07:12:30;93919.44;;;8.34;100.00
10606;BME280;5350;42.698;23.148;2023-05-10T07:14:58;93923.34;;;8.36;100.00
10606;BME280;5350;42.698;23.148;2023-05-10T07:17:25;93928.00;;;8.54;100.00
10606;BME280;5350;42.698;23.148;2023-05-10T07:19:51;93922.00;;;8.49;100.00
10606;BME280;5350;42.698;23.148;2023-05-10T07:22:18;93926.41;;;8.53;100.00
10606;BME280;5350;42.698;23.148;2023-05-10T07:24:45;93930.06;;;8.57;100.00
10606;BME280;5350;42.698;23.148;2023-05-10T07:27:12;93933.25;;;8.54;100.00
10606;BME280;5350;42.698;23.148;2023-05-10T07:29:40;93933.75;;;8.61;100.00
10606;BME280;5350;42.698;23.148;2023-05-10T07:32:07;93933.44;;;8.68;100.00
10606;BME280;5350;42.698;23.148;2023-05-10T07:34:34;93933.19;;;8.64;100.00
10606;BME280;5350;42.698;23.148;2023-05-10T07:37:01;93935.81;;;8.64;100.00
10606;BME280;5350;42.698;23.148;2023-05-10T07:39:27;93937.09;;;8.72;100.00
10606;BME280;5350;42.698;23.148;2023-05-10T07:41:54;93926.69;;;8.52;100.00
10606;BME280;5350;42.698;23.148;2023-05-10T07:44:21;93941.00;;;8.74;100.00
10606;BME280;5350;42.698;23.148;2023-05-10T07:46:50;93940.22;;;8.79;100.00
10606;BME280;5350;42.698;23.148;2023-05-10T07:49:16;93940.44;;;8.88;100.00
10606;BME280;5350;42.698;23.148;2023-05-10T07:51:43;93928.69;;;8.70;100.00
10606;BME280;5350;42.698;23.148;2023-05-10T07:54:10;93938.94;;;8.71;100.00
10606;BME280;5350;42.698;23.148;2023-05-10T07:56:38;93942.88;;;8.74;100.00
10606;BME280;5350;42.698;23.148;2023-05-10T07:59:05;93940.94;;;8.95;100.00
10606;BME280;5350;42.698;23.148;2023-05-10T08:01:33;93950.34;;;9.01;100.00
10606;BME280;5350;42.698;23.148;2023-05-10T08:04:02;93933.53;;;9.02;100.00
10606;BME280;5350;42.698;23.148;2023-05-10T08:06:29;93942.63;;;9.14;100.00
10606;BME280;5350;42.698;23.148;2023-05-10T08:08:56;93904.66;;;9.07;100.00
10606;BME280;5350;42.698;23.148;2023-05-10T08:11:23;93944.06;;;9.40;100.00
10606;BME280;5350;42.698;23.148;2023-05-10T08:13:50;93928.53;;;9.44;100.00
10606;BME280;5350;42.698;23.148;2023-05-10T08:16:17;93940.78;;;9.53;100.00
10606;BME280;5350;42.698;23.148;2023-05-10T08:18:44;93941.75;;;9.68;100.00
10606;BME280;5350;42.698;23.148;2023-05-10T08:21:13;93942.72;;;9.77;100.00
10606;BME280;5350;42.698;23.148;2023-05-10T08:23:40;93951.59;;;9.81;100.00
10606;BME280;5350;42.698;23.148;2023-05-10T08:26:08;93947.72;;;9.78;100.00
10606;BME280;5350;42.698;23.148;2023-05-10T08:28:35;93952.59;;;9.90;100.00
10606;BME280;5350;42.698;23.148;2023-05-10T08:31:02;93951.81;;;9.89;100.00
10606;BME280;5350;42.698;23.148;2023-05-10T08:33:29;93943.38;;;9.92;100.00
10606;BME280;5350;42.698;23.148;2023-05-10T08:35:55;93951.56;;;9.86;100.00
10606;BME280;5350;42.698;23.148;2023-05-10T08:38:23;93958.38;;;9.87;100.00
10606;BME280;5350;42.698;23.148;2023-05-10T08:40:52;93949.16;;;9.94;100.00
10606;BME280;5350;42.698;23.148;2023-05-10T08:43:23;93952.28;;;9.96;100.00
10606;BME280;5350;42.698;23.148;2023-05-10T08:45:53;93950.63;;;10.05;100.00
10606;BME280;5350;42.698;23.148;2023-05-10T08:48:22;93953.19;;;10.15;100.00
10606;BME280;5350;42.698;23.148;2023-05-10T08:50:52;93949.03;;;10.04;100.00
10606;BME280;5350;42.698;23.148;2023-05-10T08:53:19;93956.84;;;10.14;100.00
10606;BME280;5350;42.698;23.148;2023-05-10T08:55:49;93951.06;;;10.17;100.00
10606;BME280;5350;42.698;23.148;2023-05-10T08:58:16;93960.06;;;10.11;100.00
10606;BME280;5350;42.698;23.148;2023-05-10T09:00:45;93962.16;;;10.09;100.00
10606;BME280;5350;42.698;23.148;2023-05-10T09:03:12;93954.00;;;10.06;100.00
10606;BME280;5350;42.698;23.148;2023-05-10T09:05:39;93949.94;;;10.23;100.00
10606;BME280;5350;42.698;23.148;2023-05-10T09:08:07;93948.31;;;10.27;100.00
10606;BME280;5350;42.698;23.148;2023-05-10T09:10:35;93937.78;;;10.32;100.00
10606;BME280;5350;42.698;23.148;2023-05-10T09:13:04;93958.06;;;10.51;100.00
10606;BME280;5350;42.698;23.148;2023-05-10T09:15:32;93953.25;;;10.34;100.00
10606;BME280;5350;42.698;23.148;2023-05-10T09:17:58;93956.31;;;10.41;100.00
10606;BME280;5350;42.698;23.148;2023-05-10T09:20:27;93958.81;;;10.32;100.00
10606;BME280;5350;42.698;23.148;2023-05-10T09:22:54;93961.00;;;10.49;100.00
10606;BME280;5350;42.698;23.148;2023-05-10T09:25:21;93954.44;;;10.47;100.00
10606;BME280;5350;42.698;23.148;2023-05-10T09:27:48;93962.03;;;10.48;100.00
10606;BME280;5350;42.698;23.148;2023-05-10T09:30:18;93963.88;;;10.48;100.00
10606;BME280;5350;42.698;23.148;2023-05-10T09:32:49;93953.47;;;10.37;100.00
10606;BME280;5350;42.698;23.148;2023-05-10T09:35:18;93956.06;;;10.42;100.00
10606;BME280;5350;42.698;23.148;2023-05-10T09:37:46;93947.88;;;10.44;100.00
10606;BME280;5350;42.698;23.148;2023-05-10T09:40:15;93951.47;;;10.29;100.00
10606;BME280;5350;42.698;23.148;2023-05-10T09:42:52;93955.38;;;10.32;100.00
10606;BME280;5350;42.698;23.148;2023-05-10T09:45:23;93943.91;;;10.47;100.00
10606;BME280;5350;42.698;23.148;2023-05-10T09:47:51;93943.97;;;10.41;100.00
10606;BME280;5350;42.698;23.148;2023-05-10T09:50:19;93940.53;;;10.41;100.00
10606;BME280;5350;42.698;23.148;2023-05-10T09:52:47;93945.25;;;10.44;100.00
10606;BME280;5350;42.698;23.148;2023-05-10T09:55:15;93940.63;;;10.60;100.00
10606;BME280;5350;42.698;23.148;2023-05-10T09:57:42;93938.50;;;10.62;100.00
10606;BME280;5350;42.698;23.148;2023-05-10T10:27:16;93932.31;;;11.13;100.00
10606;BME280;5350;42.698;23.148;2023-05-10T10:29:52;93933.94;;;10.91;100.00
10606;BME280;5350;42.698;23.148;2023-05-10T10:32:29;93940.19;;;10.95;100.00
10606;BME280;5350;42.698;23.148;2023-05-10T10:34:57;93933.84;;;10.96;100.00
10606;BME280;5350;42.698;23.148;2023-05-10T10:37:24;93934.28;;;11.03;100.00
10606;BME280;5350;42.698;23.148;2023-05-10T10:40:22;93936.19;;;10.97;100.00
10606;BME280;5350;42.698;23.148;2023-05-10T10:42:51;93932.78;;;10.97;100.00
10606;BME280;5350;42.698;23.148;2023-05-10T10:45:19;93936.84;;;11.08;100.00
10606;BME280;5350;42.698;23.148;2023-05-10T10:47:46;93936.84;;;11.08;100.00
10606;BME280;5350;42.698;23.148;2023-05-10T10:50:13;93929.88;;;11.17;100.00
10606;BME280;5350;42.698;23.148;2023-05-10T10:52:42;93940.69;;;11.34;100.00
10606;BME280;5350;42.698;23.148;2023-05-10T10:55:10;93934.59;;;11.39;100.00
10606;BME280;5350;42.698;23.148;2023-05-10T10:57:45;93930.63;;;11.55;100.00
10606;BME280;5350;42.698;23.148;2023-05-10T11:00:27;93927.81;;;11.70;100.00
10606;BME280;5350;42.698;23.148;2023-05-10T11:02:58;93923.59;;;11.50;100.00
10606;BME280;5350;42.698;23.148;2023-05-10T11:05:45;93927.72;;;11.56;100.00
10606;BME280;5350;42.698;23.148;2023-05-10T11:08:17;93925.91;;;11.89;100.00
10606;BME280;5350;42.698;23.148;2023-05-10T11:10:52;93923.78;;;11.91;100.00
10606;BME280;5350;42.698;23.148;2023-05-10T11:13:30;93925.03;;;11.93;100.00
10606;BME280;5350;42.698;23.148;2023-05-10T11:15:59;93936.84;;;11.96;100.00
10606;BME280;5350;42.698;23.148;2023-05-10T11:18:36;93939.00;;;11.94;100.00
10606;BME280;5350;42.698;23.148;2023-05-10T11:21:03;93937.81;;;11.86;100.00
10606;BME280;5350;42.698;23.148;2023-05-10T11:23:31;93945.59;;;11.78;100.00
10606;BME280;5350;42.698;23.148;2023-05-10T11:25:59;93941.19;;;11.73;100.00
10606;BME280;5350;42.698;23.148;2023-05-10T11:28:26;93932.72;;;11.76;100.00
10606;BME280;5350;42.698;23.148;2023-05-10T11:30:54;93938.38;;;11.83;100.00
10606;BME280;5350;42.698;23.148;2023-05-10T11:33:22;93937.59;;;11.83;100.00
10606;BME280;5350;42.698;23.148;2023-05-10T11:35:49;93935.84;;;11.78;100.00
10606;BME280;5350;42.698;23.148;2023-05-10T11:38:15;93934.47;;;11.81;100.00
10606;BME280;5350;42.698;23.148;2023-05-10T11:40:43;93903.50;;;11.54;100.00
10606;BME280;5350;42.698;23.148;2023-05-10T11:43:09;93931.13;;;11.75;100.00
10606;BME280;5350;42.698;23.148;2023-05-10T11:45:38;93919.44;;;11.81;100.00
10606;BME280;5350;42.698;23.148;2023-05-10T11:48:06;93920.53;;;11.80;100.00
10606;BME280;5350;42.698;23.148;2023-05-10T11:50:35;93921.03;;;11.82;100.00
10606;BME280;5350;42.698;23.148;2023-05-10T11:53:01;93924.53;;;11.91;100.00
10606;BME280;5350;42.698;23.148;2023-05-10T11:55:28;93925.91;;;11.89;100.00
10606;BME280;5350;42.698;23.148;2023-05-10T11:58:00;93929.06;;;12.04;100.00
10606;BME280;5350;42.698;23.148;2023-05-10T12:00:27;93924.28;;;12.07;100.00
10606;BME280;5350;42.698;23.148;2023-05-10T12:02:54;93922.06;;;12.14;100.00
10606;BME280;5350;42.698;23.148;2023-05-10T12:05:21;93928.31;;;12.18;100.00
10606;BME280;5350;42.698;23.148;2023-05-10T12:07:49;93916.41;;;12.34;100.00
10606;BME280;5350;42.698;23.148;2023-05-10T12:10:16;93914.28;;;12.49;100.00
10606;BME280;5350;42.698;23.148;2023-05-10T12:12:44;93925.59;;;12.50;100.00
10606;BME280;5350;42.698;23.148;2023-05-10T12:15:12;93915.16;;;12.45;100.00
10606;BME280;5350;42.698;23.148;2023-05-10T12:17:39;93921.78;;;12.56;100.00
10606;BME280;5350;42.698;23.148;2023-05-10T12:20:16;93920.31;;;12.50;100.00
10606;BME280;5350;42.698;23.148;2023-05-10T12:22:45;93921.00;;;12.42;100.00
10606;BME280;5350;42.698;23.148;2023-05-10T12:25:13;93925.50;;;12.55;100.00
10606;BME280;5350;42.698;23.148;2023-05-10T12:27:41;93924.03;;;12.62;100.00
10606;BME280;5350;42.698;23.148;2023-05-10T12:30:18;93929.31;;;12.49;99.73
10606;BME280;5350;42.698;23.148;2023-05-10T12:32:45;93919.16;;;12.42;99.73
10606;BME280;5350;42.698;23.148;2023-05-10T12:35:12;93916.59;;;12.24;100.00
10606;BME280;5350;42.698;23.148;2023-05-10T12:37:38;93910.34;;;12.20;100.00
10606;BME280;5350;42.698;23.148;2023-05-10T12:40:06;93910.63;;;12.04;100.00
10606;BME280;5350;42.698;23.148;2023-05-10T12:42:36;93901.72;;;12.00;100.00
10606;BME280;5350;42.698;23.148;2023-05-10T12:45:03;93904.06;;;12.02;100.00
10606;BME280;5350;42.698;23.148;2023-05-10T12:47:30;93903.78;;;12.03;100.00
10606;BME280;5350;42.698;23.148;2023-05-10T12:49:57;93903.75;;;11.90;100.00
10606;BME280;5350;42.698;23.148;2023-05-10T12:52:24;93905.31;;;11.91;100.00
10606;BME280;5350;42.698;23.148;2023-05-10T12:54:51;93896.69;;;11.85;100.00
10606;BME280;5350;42.698;23.148;2023-05-10T12:57:18;93894.69;;;11.96;100.00
10606;BME280;5350;42.698;23.148;2023-05-10T12:59:46;93885.22;;;12.09;100.00
10606;BME280;5350;42.698;23.148;2023-05-10T13:02:13;93889.44;;;12.10;100.00
10606;BME280;5350;42.698;23.148;2023-05-10T13:04:40;93882.38;;;11.91;100.00
10606;BME280;5350;42.698;23.148;2023-05-10T13:07:07;93878.47;;;12.02;100.00
10606;BME280;5350;42.698;23.148;2023-05-10T13:09:34;93871.84;;;12.05;100.00
10606;BME280;5350;42.698;23.148;2023-05-10T13:12:01;93873.03;;;12.13;100.00
10606;BME280;5350;42.698;23.148;2023-05-10T13:14:29;93870.50;;;12.21;100.00
10606;BME280;5350;42.698;23.148;2023-05-10T13:16:57;93865.22;;;12.21;100.00
10606;BME280;5350;42.698;23.148;2023-05-10T13:19:25;93876.16;;;12.15;100.00
10606;BME280;5350;42.698;23.148;2023-05-10T13:21:52;93863.72;;;12.01;100.00
10606;BME280;5350;42.698;23.148;2023-05-10T13:24:19;93866.34;;;12.01;100.00
10606;BME280;5350;42.698;23.148;2023-05-10T13:26:45;93860.03;;;12.02;100.00
10606;BME280;5350;42.698;23.148;2023-05-10T13:29:12;93854.69;;;12.08;100.00
10606;BME280;5350;42.698;23.148;2023-05-10T13:31:39;93852.59;;;12.04;100.00